sensor_id;sensor_type;location;lat;lon;timestamp;temperature;humidity
69054;DHT22;56125;52.242;4.756;2022-09-09T00:00:15;23.30;56.10
69054;DHT22;56125;52.242;4.756;2022-09-09T00:10:36;23.20;56.10
69054;DHT22;56125;52.242;4.756;2022-09-09T00:15:51;23.20;56.10
69054;DHT22;56125;52.242;4.756;2022-09-09T00:21:07;23.20;56.10
69054;DHT22;56125;52.242;4.756;2022-09-09T00:26:26;23.20;56.10
69054;DHT22;56125;52.242;4.756;2022-09-09T00:31:32;23.20;56.10
69054;DHT22;56125;52.242;4.756;2022-09-09T00:36:35;23.20;56.10
69054;DHT22;56125;52.242;4.756;2022-09-09T00:41:55;23.20;56.10
69054;DHT22;56125;52.242;4.756;2022-09-09T00:57:32;23.10;56.10
69054;DHT22;56125;52.242;4.756;2022-09-09T01:02:39;23.20;56.10
69054;DHT22;56125;52.242;4.756;2022-09-09T01:07:44;23.20;56.20
69054;DHT22;56125;52.242;4.756;2022-09-09T01:12:48;23.10;56.10
69054;DHT22;56125;52.242;4.756;2022-09-09T01:17:55;23.10;56.10
69054;DHT22;56125;52.242;4.756;2022-09-09T01:28:30;23.10;56.10
69054;DHT22;56125;52.242;4.756;2022-09-09T01:33:32;23.10;56.10
69054;DHT22;56125;52.242;4.756;2022-09-09T01:38:34;23.10;56.10
69054;DHT22;56125;52.242;4.756;2022-09-09T01:43:37;23.10;56.20
69054;DHT22;56125;52.242;4.756;2022-09-09T01:48:39;23.10;56.10
69054;DHT22;56125;52.242;4.756;2022-09-09T01:53:41;23.10;56.20
69054;DHT22;56125;52.242;4.756;2022-09-09T01:58:47;23.10;56.10
69054;DHT22;56125;52.242;4.756;2022-09-09T02:03:53;23.10;56.20
69054;DHT22;56125;52.242;4.756;2022-09-09T02:08:59;23.00;56.00
69054;DHT22;56125;52.242;4.756;2022-09-09T02:14:25;23.10;56.10
69054;DHT22;56125;52.242;4.756;2022-09-09T02:19:32;23.00;56.20
69054;DHT22;56125;52.242;4.756;2022-09-09T02:24:36;23.00;56.20
69054;DHT22;56125;52.242;4.756;2022-09-09T02:29:41;23.00;56.10
69054;DHT22;56125;52.242;4.756;2022-09-09T02:34:58;23.00;56.10
69054;DHT22;56125;52.242;4.756;2022-09-09T02:40:05;23.00;56.10
69054;DHT22;56125;52.242;4.756;2022-09-09T02:45:09;23.00;57.10
69054;DHT22;56125;52.242;4.756;2022-09-09T02:50:15;23.00;56.10
69054;DHT22;56125;52.242;4.756;2022-09-09T02:55:24;23.00;56.10
69054;DHT22;56125;52.242;4.756;2022-09-09T03:00:28;23.00;56.00
69054;DHT22;56125;52.242;4.756;2022-09-09T03:05:29;23.00;56.10
69054;DHT22;56125;52.242;4.756;2022-09-09T03:10:30;23.00;56.00
69054;DHT22;56125;52.242;4.756;2022-09-09T03:15:32;23.00;56.00
69054;DHT22;56125;52.242;4.756;2022-09-09T03:20:33;23.00;56.00
69054;DHT22;56125;52.242;4.756;2022-09-09T03:25:34;23.00;56.00
69054;DHT22;56125;52.242;4.756;2022-09-09T03:30:36;23.00;56.00
69054;DHT22;56125;52.242;4.756;2022-09-09T03:35:38;22.90;55.90
69054;DHT22;56125;52.242;4.756;2022-09-09T03:40:51;22.90;56.00
69054;DHT22;56125;52.242;4.756;2022-09-09T03:45:56;22.90;55.90
69054;DHT22;56125;52.242;4.756;2022-09-09T03:50:59;22.90;55.90
69054;DHT22;56125;52.242;4.756;2022-09-09T03:56:02;22.90;55.90
69054;DHT22;56125;52.242;4.756;2022-09-09T04:01:09;22.90;55.80
69054;DHT22;56125;52.242;4.756;2022-09-09T04:06:11;22.90;55.90
69054;DHT22;56125;52.242;4.756;2022-09-09T04:11:14;22.90;55.80
69054;DHT22;56125;52.242;4.756;2022-09-09T04:16:16;22.90;55.90
69054;DHT22;56125;52.242;4.756;2022-09-09T04:21:17;22.90;55.80
69054;DHT22;56125;52.242;4.756;2022-09-09T04:26:19;22.90;55.80
69054;DHT22;56125;52.242;4.756;2022-09-09T04:31:21;22.90;55.80
69054;DHT22;56125;52.242;4.756;2022-09-09T04:36:24;22.90;55.80
69054;DHT22;56125;52.242;4.756;2022-09-09T04:41:25;22.90;55.80
69054;DHT22;56125;52.242;4.756;2022-09-09T04:46:26;22.80;56.70
69054;DHT22;56125;52.242;4.756;2022-09-09T04:51:27;22.80;55.70
69054;DHT22;56125;52.242;4.756;2022-09-09T04:56:28;22.80;55.70
69054;DHT22;56125;52.242;4.756;2022-09-09T05:01:29;22.80;55.70
69054;DHT22;56125;52.242;4.756;2022-09-09T05:06:30;22.80;55.60
69054;DHT22;56125;52.242;4.756;2022-09-09T05:11:32;22.80;55.60
69054;DHT22;56125;52.242;4.756;2022-09-09T05:16:36;22.80;55.60
69054;DHT22;56125;52.242;4.756;2022-09-09T05:21:37;22.80;55.60
69054;DHT22;56125;52.242;4.756;2022-09-09T05:26:38;22.80;55.60
69054;DHT22;56125;52.242;4.756;2022-09-09T05:31:39;22.80;55.60
69054;DHT22;56125;52.242;4.756;2022-09-09T05:36:41;22.80;55.60
69054;DHT22;56125;52.242;4.756;2022-09-09T05:41:42;22.80;55.60
69054;DHT22;56125;52.242;4.756;2022-09-09T05:46:43;22.80;55.50
69054;DHT22;56125;52.242;4.756;2022-09-09T05:51:45;22.90;55.50
69054;DHT22;56125;52.242;4.756;2022-09-09T05:56:47;22.90;55.50
69054;DHT22;56125;52.242;4.756;2022-09-09T06:01:50;22.90;55.50
69054;DHT22;56125;52.242;4.756;2022-09-09T06:06:51;22.90;55.60
69054;DHT22;56125;52.242;4.756;2022-09-09T06:11:52;22.90;55.50
69054;DHT22;56125;52.242;4.756;2022-09-09T06:16:53;23.00;55.60
69054;DHT22;56125;52.242;4.756;2022-09-09T06:21:54;23.00;55.50
69054;DHT22;56125;52.242;4.756;2022-09-09T06:26:55;23.10;55.70
69054;DHT22;56125;52.242;4.756;2022-09-09T06:31:58;23.10;55.60
69054;DHT22;56125;52.242;4.756;2022-09-09T06:36:59;23.10;55.60
69054;DHT22;56125;52.242;4.756;2022-09-09T06:42:00;23.20;55.50
69054;DHT22;56125;52.242;4.756;2022-09-09T06:47:02;23.20;55.50
69054;DHT22;56125;52.242;4.756;2022-09-09T06:52:03;23.20;55.60
69054;DHT22;56125;52.242;4.756;2022-09-09T06:57:04;23.10;55.50
69054;DHT22;56125;52.242;4.756;2022-09-09T07:02:07;23.10;55.70
69054;DHT22;56125;52.242;4.756;2022-09-09T07:07:08;23.10;55.70
69054;DHT22;56125;52.242;4.756;2022-09-09T07:12:12;23.10;55.80
69054;DHT22;56125;52.242;4.756;2022-09-09T07:17:13;23.10;55.80
69054;DHT22;56125;52.242;4.756;2022-09-09T07:22:15;23.10;55.80
69054;DHT22;56125;52.242;4.756;2022-09-09T07:27:16;23.00;55.80
69054;DHT22;56125;52.242;4.756;2022-09-09T07:32:17;23.00;55.80
69054;DHT22;56125;52.242;4.756;2022-09-09T07:37:20;23.00;55.90
69054;DHT22;56125;52.242;4.756;2022-09-09T07:42:21;23.00;55.90
69054;DHT22;56125;52.242;4.756;2022-09-09T07:47:22;23.00;55.90
69054;DHT22;56125;52.242;4.756;2022-09-09T07:52:25;23.00;56.00
69054;DHT22;56125;52.242;4.756;2022-09-09T07:57:26;23.00;56.00
69054;DHT22;56125;52.242;4.756;2022-09-09T08:02:28;23.00;56.00
69054;DHT22;56125;52.242;4.756;2022-09-09T08:07:30;23.00;56.00
69054;DHT22;56125;52.242;4.756;2022-09-09T08:12:31;23.00;56.00
69054;DHT22;56125;52.242;4.756;2022-09-09T08:17:33;23.00;56.10
69054;DHT22;56125;52.242;4.756;2022-09-09T08:22:34;23.00;56.10
69054;DHT22;56125;52.242;4.756;2022-09-09T08:27:35;23.00;56.10
69054;DHT22;56125;52.242;4.756;2022-09-09T08:32:36;23.00;57.10
69054;DHT22;56125;52.242;4.756;2022-09-09T08:37:37;23.00;56.10
69054;DHT22;56125;52.242;4.756;2022-09-09T08:42:40;23.00;56.10
69054;DHT22;56125;52.242;4.756;2022-09-09T08:53:16;23.00;56.00
69054;DHT22;56125;52.242;4.756;2022-09-09T08:58:25;23.00;56.10
69054;DHT22;56125;52.242;4.756;2022-09-09T09:08:46;23.00;56.20
69054;DHT22;56125;52.242;4.756;2022-09-09T09:19:14;23.00;56.10
69054;DHT22;56125;52.242;4.756;2022-09-09T09:29:49;23.00;56.20
69054;DHT22;56125;52.242;4.756;2022-09-09T09:34:56;23.00;56.10
69054;DHT22;56125;52.242;4.756;2022-09-09T09:40:18;23.00;56.10
69054;DHT22;56125;52.242;4.756;2022-09-09T09:45:46;23.00;56.10
69054;DHT22;56125;52.242;4.756;2022-09-09T09:50:58;23.00;56.20
69054;DHT22;56125;52.242;4.756;2022-09-09T09:56:03;23.00;56.30
69054;DHT22;56125;52.242;4.756;2022-09-09T10:01:18;23.00;56.30
69054;DHT22;56125;52.242;4.756;2022-09-09T10:06:34;23.00;56.40
69054;DHT22;56125;52.242;4.756;2022-09-09T10:11:55;23.00;56.40
69054;DHT22;56125;52.242;4.756;2022-09-09T10:17:23;23.00;56.50
69054;DHT22;56125;52.242;4.756;2022-09-09T10:22:32;23.00;56.50
69054;DHT22;56125;52.242;4.756;2022-09-09T10:27:56;23.00;56.50
69054;DHT22;56125;52.242;4.756;2022-09-09T10:33:09;23.00;56.50
69054;DHT22;56125;52.242;4.756;2022-09-09T10:38:14;23.10;56.60
69054;DHT22;56125;52.242;4.756;2022-09-09T10:43:36;23.10;56.60
69054;DHT22;56125;52.242;4.756;2022-09-09T10:48:56;23.10;56.60
69054;DHT22;56125;52.242;4.756;2022-09-09T10:59:28;23.10;56.50
69054;DHT22;56125;52.242;4.756;2022-09-09T11:04:38;23.10;56.60
69054;DHT22;56125;52.242;4.756;2022-09-09T11:09:49;23.10;56.60
69054;DHT22;56125;52.242;4.756;2022-09-09T11:14:59;23.10;56.60
69054;DHT22;56125;52.242;4.756;2022-09-09T11:20:05;23.10;56.50
69054;DHT22;56125;52.242;4.756;2022-09-09T11:25:18;23.10;56.50
69054;DHT22;56125;52.242;4.756;2022-09-09T11:36:16;23.10;56.60
69054;DHT22;56125;52.242;4.756;2022-09-09T11:41:36;23.10;56.60
69054;DHT22;56125;52.242;4.756;2022-09-09T11:46:39;23.10;56.70
69054;DHT22;56125;52.242;4.756;2022-09-09T11:51:42;23.20;56.80
69054;DHT22;56125;52.242;4.756;2022-09-09T11:56:44;23.20;56.80
69054;DHT22;56125;52.242;4.756;2022-09-09T12:07:04;23.20;57.00
69054;DHT22;56125;52.242;4.756;2022-09-09T12:12:25;23.20;57.00
69054;DHT22;56125;52.242;4.756;2022-09-09T12:17:28;23.20;57.00
69054;DHT22;56125;52.242;4.756;2022-09-09T12:32:44;23.20;56.80
69054;DHT22;56125;52.242;4.756;2022-09-09T12:37:52;23.20;57.40
69054;DHT22;56125;52.242;4.756;2022-09-09T12:42:58;23.20;57.60
69054;DHT22;56125;52.242;4.756;2022-09-09T12:48:07;23.20;57.10
69054;DHT22;56125;52.242;4.756;2022-09-09T12:53:25;23.20;57.30
69054;DHT22;56125;52.242;4.756;2022-09-09T12:58:27;23.20;57.40
69054;DHT22;56125;52.242;4.756;2022-09-09T13:03:33;23.20;57.40
69054;DHT22;56125;52.242;4.756;2022-09-09T13:08:43;23.30;57.90
69054;DHT22;56125;52.242;4.756;2022-09-09T13:13:51;23.30;57.80
69054;DHT22;56125;52.242;4.756;2022-09-09T13:18:54;23.30;57.90
69054;DHT22;56125;52.242;4.756;2022-09-09T13:23:56;23.30;58.00
69054;DHT22;56125;52.242;4.756;2022-09-09T13:29:19;23.30;57.90
69054;DHT22;56125;52.242;4.756;2022-09-09T13:34:32;23.30;58.10
69054;DHT22;56125;52.242;4.756;2022-09-09T13:39:34;23.40;58.30
69054;DHT22;56125;52.242;4.756;2022-09-09T13:44:39;23.40;58.30
69054;DHT22;56125;52.242;4.756;2022-09-09T13:49:42;23.40;58.30
69054;DHT22;56125;52.242;4.756;2022-09-09T13:54:50;23.50;58.40
69054;DHT22;56125;52.242;4.756;2022-09-09T13:59:53;23.50;58.50
69054;DHT22;56125;52.242;4.756;2022-09-09T14:04:55;23.50;58.40
69054;DHT22;56125;52.242;4.756;2022-09-09T14:09:56;23.60;58.40
69054;DHT22;56125;52.242;4.756;2022-09-09T14:14:57;23.60;58.20
69054;DHT22;56125;52.242;4.756;2022-09-09T14:19:58;23.60;57.70
69054;DHT22;56125;52.242;4.756;2022-09-09T14:24:59;23.60;58.00
69054;DHT22;56125;52.242;4.756;2022-09-09T14:30:00;23.60;57.90
69054;DHT22;56125;52.242;4.756;2022-09-09T14:35:02;23.50;58.00
69054;DHT22;56125;52.242;4.756;2022-09-09T14:40:03;23.60;58.00
69054;DHT22;56125;52.242;4.756;2022-09-09T14:45:05;23.50;57.80
69054;DHT22;56125;52.242;4.756;2022-09-09T14:50:06;23.60;57.80
69054;DHT22;56125;52.242;4.756;2022-09-09T14:55:08;23.60;57.70
69054;DHT22;56125;52.242;4.756;2022-09-09T15:00:10;23.50;58.80
69054;DHT22;56125;52.242;4.756;2022-09-09T15:05:12;23.50;57.80
69054;DHT22;56125;52.242;4.756;2022-09-09T15:10:13;23.60;58.00
69054;DHT22;56125;52.242;4.756;2022-09-09T15:15:14;23.50;58.60
69054;DHT22;56125;52.242;4.756;2022-09-09T15:20:15;23.60;58.90
69054;DHT22;56125;52.242;4.756;2022-09-09T15:25:17;23.60;59.10
69054;DHT22;56125;52.242;4.756;2022-09-09T15:30:18;23.60;59.40
69054;DHT22;56125;52.242;4.756;2022-09-09T15:35:19;23.60;58.90
69054;DHT22;56125;52.242;4.756;2022-09-09T15:40:20;23.50;59.20
69054;DHT22;56125;52.242;4.756;2022-09-09T15:45:21;23.60;59.50
69054;DHT22;56125;52.242;4.756;2022-09-09T15:50:22;23.60;59.30
69054;DHT22;56125;52.242;4.756;2022-09-09T15:55:23;23.50;59.80
69054;DHT22;56125;52.242;4.756;2022-09-09T16:00:27;23.50;59.80
69054;DHT22;56125;52.242;4.756;2022-09-09T16:05:29;23.50;59.70
69054;DHT22;56125;52.242;4.756;2022-09-09T16:10:30;23.50;60.20
69054;DHT22;56125;52.242;4.756;2022-09-09T16:15:31;23.50;60.20
69054;DHT22;56125;52.242;4.756;2022-09-09T16:20:32;23.50;60.30
69054;DHT22;56125;52.242;4.756;2022-09-09T16:25:33;23.50;60.50
69054;DHT22;56125;52.242;4.756;2022-09-09T16:30:36;23.50;60.80
69054;DHT22;56125;52.242;4.756;2022-09-09T16:35:37;23.50;60.80
69054;DHT22;56125;52.242;4.756;2022-09-09T16:40:39;23.40;60.70
69054;DHT22;56125;52.242;4.756;2022-09-09T16:45:45;23.40;60.80
69054;DHT22;56125;52.242;4.756;2022-09-09T16:50:46;23.40;60.60
69054;DHT22;56125;52.242;4.756;2022-09-09T16:55:47;23.40;60.60
69054;DHT22;56125;52.242;4.756;2022-09-09T17:00:48;23.40;60.80
69054;DHT22;56125;52.242;4.756;2022-09-09T17:05:49;23.40;60.60
69054;DHT22;56125;52.242;4.756;2022-09-09T17:10:51;23.40;60.70
69054;DHT22;56125;52.242;4.756;2022-09-09T17:15:52;23.40;60.80
69054;DHT22;56125;52.242;4.756;2022-09-09T17:20:53;23.40;60.60
69054;DHT22;56125;52.242;4.756;2022-09-09T17:25:58;23.40;60.80
69054;DHT22;56125;52.242;4.756;2022-09-09T17:30:59;23.40;60.80
69054;DHT22;56125;52.242;4.756;2022-09-09T17:36:12;23.40;60.70
69054;DHT22;56125;52.242;4.756;2022-09-09T17:41:19;23.30;61.00
69054;DHT22;56125;52.242;4.756;2022-09-09T17:46:26;23.30;61.00
69054;DHT22;56125;52.242;4.756;2022-09-09T17:51:29;23.40;60.90
69054;DHT22;56125;52.242;4.756;2022-09-09T17:56:33;23.40;61.10
69054;DHT22;56125;52.242;4.756;2022-09-09T18:01:37;23.40;61.30
69054;DHT22;56125;52.242;4.756;2022-09-09T18:06:41;23.30;61.30
69054;DHT22;56125;52.242;4.756;2022-09-09T18:11:45;23.40;61.20
69054;DHT22;56125;52.242;4.756;2022-09-09T18:16:46;23.40;61.30
69054;DHT22;56125;52.242;4.756;2022-09-09T18:21:47;23.40;61.40
69054;DHT22;56125;52.242;4.756;2022-09-09T18:26:49;23.30;61.20
69054;DHT22;56125;52.242;4.756;2022-09-09T18:31:52;23.40;61.10
69054;DHT22;56125;52.242;4.756;2022-09-09T18:36:53;23.40;61.10
69054;DHT22;56125;52.242;4.756;2022-09-09T18:41:59;23.40;60.90
69054;DHT22;56125;52.242;4.756;2022-09-09T18:47:00;23.30;61.00
69054;DHT22;56125;52.242;4.756;2022-09-09T18:52:02;23.30;60.90
69054;DHT22;56125;52.242;4.756;2022-09-09T18:57:04;23.30;60.80
69054;DHT22;56125;52.242;4.756;2022-09-09T19:02:05;23.30;60.80
69054;DHT22;56125;52.242;4.756;2022-09-09T19:07:06;23.20;60.80
69054;DHT22;56125;52.242;4.756;2022-09-09T19:12:07;23.20;60.70
69054;DHT22;56125;52.242;4.756;2022-09-09T19:17:08;23.20;60.70
69054;DHT22;56125;52.242;4.756;2022-09-09T19:22:09;23.20;60.70
69054;DHT22;56125;52.242;4.756;2022-09-09T19:27:11;23.20;60.60
69054;DHT22;56125;52.242;4.756;2022-09-09T19:32:12;23.20;60.60
69054;DHT22;56125;52.242;4.756;2022-09-09T19:37:13;23.20;60.60
69054;DHT22;56125;52.242;4.756;2022-09-09T19:42:14;23.20;60.80
69054;DHT22;56125;52.242;4.756;2022-09-09T19:47:18;23.10;60.70
69054;DHT22;56125;52.242;4.756;2022-09-09T19:52:19;23.10;60.60
69054;DHT22;56125;52.242;4.756;2022-09-09T19:57:20;23.10;60.70
69054;DHT22;56125;52.242;4.756;2022-09-09T20:02:23;23.10;60.70
69054;DHT22;56125;52.242;4.756;2022-09-09T20:07:24;23.10;60.70
69054;DHT22;56125;52.242;4.756;2022-09-09T20:12:25;23.10;60.70
69054;DHT22;56125;52.242;4.756;2022-09-09T20:17:26;23.10;60.60
69054;DHT22;56125;52.242;4.756;2022-09-09T20:22:28;23.10;60.60
69054;DHT22;56125;52.242;4.756;2022-09-09T20:27:29;23.10;60.50
69054;DHT22;56125;52.242;4.756;2022-09-09T20:32:31;23.00;60.50
69054;DHT22;56125;52.242;4.756;2022-09-09T20:37:32;23.10;60.50
69054;DHT22;56125;52.242;4.756;2022-09-09T20:42:33;23.00;60.50
69054;DHT22;56125;52.242;4.756;2022-09-09T20:47:34;23.00;60.40
69054;DHT22;56125;52.242;4.756;2022-09-09T20:52:35;23.00;60.50
69054;DHT22;56125;52.242;4.756;2022-09-09T20:57:36;23.00;60.60
69054;DHT22;56125;52.242;4.756;2022-09-09T21:02:37;23.00;60.50
69054;DHT22;56125;52.242;4.756;2022-09-09T21:07:38;23.00;60.40
69054;DHT22;56125;52.242;4.756;2022-09-09T21:12:39;23.00;60.40
69054;DHT22;56125;52.242;4.756;2022-09-09T21:17:40;23.00;60.40
69054;DHT22;56125;52.242;4.756;2022-09-09T21:22:41;23.00;60.40
69054;DHT22;56125;52.242;4.756;2022-09-09T21:27:42;23.00;60.30
69054;DHT22;56125;52.242;4.756;2022-09-09T21:32:43;23.00;60.30
69054;DHT22;56125;52.242;4.756;2022-09-09T21:37:45;23.00;60.20
69054;DHT22;56125;52.242;4.756;2022-09-09T21:42:46;23.00;60.10
69054;DHT22;56125;52.242;4.756;2022-09-09T21:47:47;23.00;60.10
69054;DHT22;56125;52.242;4.756;2022-09-09T21:52:49;23.00;60.00
69054;DHT22;56125;52.242;4.756;2022-09-09T21:57:50;23.00;60.00
69054;DHT22;56125;52.242;4.756;2022-09-09T22:02:51;23.00;60.00
69054;DHT22;56125;52.242;4.756;2022-09-09T22:07:52;23.00;60.00
69054;DHT22;56125;52.242;4.756;2022-09-09T22:12:54;23.00;60.00
69054;DHT22;56125;52.242;4.756;2022-09-09T22:17:55;23.00;60.00
69054;DHT22;56125;52.242;4.756;2022-09-09T22:22:56;22.90;59.90
69054;DHT22;56125;52.242;4.756;2022-09-09T22:27:57;22.90;59.90
69054;DHT22;56125;52.242;4.756;2022-09-09T22:32:58;22.90;59.90
69054;DHT22;56125;52.242;4.756;2022-09-09T22:38:00;22.90;59.80
69054;DHT22;56125;52.242;4.756;2022-09-09T22:43:02;22.90;59.90
69054;DHT22;56125;52.242;4.756;2022-09-09T22:48:03;22.90;59.90
69054;DHT22;56125;52.242;4.756;2022-09-09T22:53:05;22.90;59.80
69054;DHT22;56125;52.242;4.756;2022-09-09T22:58:06;22.90;59.90
69054;DHT22;56125;52.242;4.756;2022-09-09T23:03:07;22.90;60.00
69054;DHT22;56125;52.242;4.756;2022-09-09T23:08:08;22.90;60.00
69054;DHT22;56125;52.242;4.756;2022-09-09T23:13:10;22.90;60.00
69054;DHT22;56125;52.242;4.756;2022-09-09T23:18:11;22.90;60.00
69054;DHT22;56125;52.242;4.756;2022-09-09T23:23:14;22.90;60.10
69054;DHT22;56125;52.242;4.756;2022-09-09T23:28:15;22.90;60.10
69054;DHT22;56125;52.242;4.756;2022-09-09T23:33:16;22.90;60.20
69054;DHT22;56125;52.242;4.756;2022-09-09T23:38:17;22.90;60.20
69054;DHT22;56125;52.242;4.756;2022-09-09T23:43:18;22.90;60.20
69054;DHT22;56125;52.242;4.756;2022-09-09T23:48:22;22.90;60.20
69054;DHT22;56125;52.242;4.756;2022-09-09T23:53:27;22.90;60.20
69054;DHT22;56125;52.242;4.756;2022-09-09T23:58:30;22.80;60.10
